Terminal Aerodrome Forecast
Issued by NWS Sterling, VA

Current Version | Previous Version | Text Only | Print | Product List | Glossary Off
Versions: 1 2 3 4 5 6 7 8 9 10 11 12 13 14 15 16 17 18 19 20 21 22 23 24 25 26

118
FTUS41 KLWX 271449 AAB
TAFIAD
TAF AMD
KIAD 271449Z 2715/2818 18003KT 4SM BR OVC005
     FM271600 18005KT 6SM BR SCT005 BKN010
     FM271700 18011G18KT P6SM FEW250
     FM280300 19008KT P6SM BKN040
     FM280600 22004KT 3SM BR BKN140
     FM281200 VRB03KT P6SM SCT200=

USA.gov is the U.S. government's official web portal to all federal, state and local government web resources and services.